createdAt,value
2022-09-20T00:01:19.816Z,10.5
2022-09-20T00:15:50.617Z,10.8
2022-09-20T00:30:21.041Z,10.4
2022-09-20T00:44:50.276Z,9.6
2022-09-20T00:59:20.020Z,9.4
2022-09-20T01:28:25.169Z,9.9
2022-09-20T01:42:54.791Z,9
2022-09-20T01:57:27.278Z,9.4
2022-09-20T02:11:53.877Z,9.3
2022-09-20T02:26:24.782Z,8.6
2022-09-20T02:40:53.017Z,8.4
2022-09-20T02:55:24.311Z,8.9
2022-09-20T03:10:01.367Z,9
2022-09-20T03:24:33.794Z,9.2
2022-09-20T03:39:01.042Z,9.3
2022-09-20T03:53:29.956Z,8.8
2022-09-20T04:08:00.643Z,8.7
2022-09-20T04:22:32.046Z,8.6
2022-09-20T04:37:03.764Z,9.2
2022-09-20T04:51:35.157Z,9.5
2022-09-20T05:06:05.607Z,9.4
2022-09-20T05:20:36.195Z,9.5
2022-09-20T05:35:06.554Z,9.5
2022-09-20T05:49:37.418Z,9.6
2022-09-20T06:04:05.451Z,9.9
2022-09-20T06:18:37.752Z,10.1
2022-09-20T06:33:08.952Z,10.2
2022-09-20T06:47:39.653Z,10.3
2022-09-20T07:02:10.659Z,10.2
2022-09-20T07:16:43.056Z,10.9
2022-09-20T07:31:15.220Z,11.5
2022-09-20T07:45:46.105Z,11.9
2022-09-20T08:00:18.624Z,12.5
2022-09-20T08:14:52.456Z,13.2
2022-09-20T08:29:28.787Z,13.6
2022-09-20T08:43:55.520Z,12.8
2022-09-20T08:58:35.146Z,14.6
2022-09-20T09:13:02.155Z,13.9
2022-09-20T09:27:30.478Z,13.8
2022-09-20T09:42:05.797Z,14.9
2022-09-20T09:56:37.470Z,15.1
2022-09-20T10:11:05.469Z,15
2022-09-20T10:25:37.639Z,14.9
2022-09-20T10:40:04.530Z,13.7
2022-09-20T10:54:33.851Z,13.8
2022-09-20T11:09:03.432Z,13.4
2022-09-20T11:23:35.734Z,14.2
2022-09-20T11:38:07.424Z,14.5
2022-09-20T11:52:37.494Z,14.5
2022-09-20T12:07:14.490Z,14.8
2022-09-20T12:21:49.367Z,15.3
2022-09-20T12:36:19.719Z,15.3
2022-09-20T12:50:46.297Z,14.7
2022-09-20T13:05:16.830Z,14.8
2022-09-20T13:19:47.627Z,15.3
2022-09-20T13:34:23.644Z,15
2022-09-20T13:48:51.021Z,15.1
2022-09-20T14:03:21.203Z,15
2022-09-20T14:17:51.982Z,15
2022-09-20T14:32:23.025Z,15.3
2022-09-20T14:46:52.995Z,15.3
2022-09-20T15:01:24.078Z,15.3
2022-09-20T15:15:52.595Z,15.4
2022-09-20T15:30:23.578Z,15.3
2022-09-20T15:44:53.933Z,15.1
2022-09-20T16:13:59.566Z,14.9
2022-09-20T16:28:31.408Z,14.8
2022-09-20T16:43:02.406Z,14.7
2022-09-20T16:57:32.066Z,14.8
2022-09-20T17:12:01.579Z,14.1
2022-09-20T17:26:31.580Z,13.7
2022-09-20T17:41:01.887Z,13
2022-09-20T17:55:31.280Z,12.7
2022-09-20T18:10:02.679Z,12.3
2022-09-20T18:24:31.294Z,12.3
2022-09-20T18:39:00.385Z,12.5
2022-09-20T18:53:31.863Z,12.7
2022-09-20T19:08:01.058Z,12.6
2022-09-20T19:22:31.649Z,12.4
2022-09-20T19:37:02.158Z,12.5
2022-09-20T19:51:33.072Z,12.5
2022-09-20T20:06:07.771Z,12.3
2022-09-20T20:20:35.400Z,12.1
2022-09-20T20:35:05.771Z,12
2022-09-20T20:49:36.907Z,12.2
2022-09-20T21:04:07.251Z,11.8
2022-09-20T21:18:36.385Z,11.5
2022-09-20T21:33:06.377Z,11.2
2022-09-20T21:47:37.436Z,11.4
2022-09-20T22:02:08.803Z,10.9
2022-09-20T22:16:39.682Z,10.9
2022-09-20T22:31:14.760Z,11.1
2022-09-20T22:45:47.428Z,10.9
2022-09-20T23:00:12.341Z,10.9
2022-09-20T23:14:42.666Z,10.5
2022-09-20T23:29:13.850Z,10.5
2022-09-20T23:43:45.153Z,10
2022-09-20T23:58:13.757Z,10.2
